sensor_id;sensor_type;location;lat;lon;timestamp;temperature;humidity
24144;DHT22;12307;50.828;6.080;2023-05-10T00:01:07;21.60;68.70
24144;DHT22;12307;50.828;6.080;2023-05-10T00:03:33;21.60;68.70
24144;DHT22;12307;50.828;6.080;2023-05-10T00:06:00;21.60;68.70
24144;DHT22;12307;50.828;6.080;2023-05-10T00:08:26;21.60;68.70
24144;DHT22;12307;50.828;6.080;2023-05-10T00:10:52;21.60;68.70
24144;DHT22;12307;50.828;6.080;2023-05-10T00:13:18;21.60;68.70
24144;DHT22;12307;50.828;6.080;2023-05-10T00:15:43;21.60;68.70
24144;DHT22;12307;50.828;6.080;2023-05-10T00:18:09;21.60;68.70
24144;DHT22;12307;50.828;6.080;2023-05-10T00:20:35;21.60;68.70
24144;DHT22;12307;50.828;6.080;2023-05-10T00:23:02;21.60;68.70
24144;DHT22;12307;50.828;6.080;2023-05-10T00:25:27;21.60;68.70
24144;DHT22;12307;50.828;6.080;2023-05-10T00:27:53;21.60;68.70
24144;DHT22;12307;50.828;6.080;2023-05-10T00:30:20;21.60;68.70
24144;DHT22;12307;50.828;6.080;2023-05-10T00:32:46;21.60;68.70
24144;DHT22;12307;50.828;6.080;2023-05-10T00:35:13;21.60;68.70
24144;DHT22;12307;50.828;6.080;2023-05-10T00:37:39;21.60;68.70
24144;DHT22;12307;50.828;6.080;2023-05-10T00:40:08;21.60;68.70
24144;DHT22;12307;50.828;6.080;2023-05-10T00:42:34;21.60;68.70
24144;DHT22;12307;50.828;6.080;2023-05-10T00:44:59;21.60;68.70
24144;DHT22;12307;50.828;6.080;2023-05-10T00:47:25;21.60;68.70
24144;DHT22;12307;50.828;6.080;2023-05-10T00:49:51;21.60;68.70
24144;DHT22;12307;50.828;6.080;2023-05-10T00:52:17;21.60;68.70
24144;DHT22;12307;50.828;6.080;2023-05-10T00:54:43;21.60;68.70
24144;DHT22;12307;50.828;6.080;2023-05-10T00:57:10;21.60;68.70
24144;DHT22;12307;50.828;6.080;2023-05-10T00:59:36;21.60;68.70
24144;DHT22;12307;50.828;6.080;2023-05-10T01:02:02;21.60;68.70
24144;DHT22;12307;50.828;6.080;2023-05-10T01:04:28;21.60;68.70
24144;DHT22;12307;50.828;6.080;2023-05-10T01:06:54;21.60;68.70
24144;DHT22;12307;50.828;6.080;2023-05-10T01:09:20;21.60;68.70
24144;DHT22;12307;50.828;6.080;2023-05-10T01:11:46;21.60;68.70
24144;DHT22;12307;50.828;6.080;2023-05-10T01:14:15;21.60;68.70
24144;DHT22;12307;50.828;6.080;2023-05-10T01:16:44;21.60;68.60
24144;DHT22;12307;50.828;6.080;2023-05-10T01:19:15;21.60;68.70
24144;DHT22;12307;50.828;6.080;2023-05-10T01:21:49;21.60;68.70
24144;DHT22;12307;50.828;6.080;2023-05-10T01:24:38;21.60;68.70
24144;DHT22;12307;50.828;6.080;2023-05-10T01:27:24;21.60;68.60
24144;DHT22;12307;50.828;6.080;2023-05-10T01:30:12;21.60;68.70
24144;DHT22;12307;50.828;6.080;2023-05-10T01:32:51;21.60;68.60
24144;DHT22;12307;50.828;6.080;2023-05-10T01:35:29;21.60;68.70
24144;DHT22;12307;50.828;6.080;2023-05-10T01:38:02;21.60;68.70
24144;DHT22;12307;50.828;6.080;2023-05-10T01:40:35;21.60;68.60
24144;DHT22;12307;50.828;6.080;2023-05-10T01:43:02;21.60;68.60
24144;DHT22;12307;50.828;6.080;2023-05-10T01:45:31;21.60;68.60
24144;DHT22;12307;50.828;6.080;2023-05-10T01:48:05;21.60;68.60
24144;DHT22;12307;50.828;6.080;2023-05-10T01:50:32;21.50;68.60
24144;DHT22;12307;50.828;6.080;2023-05-10T01:53:00;21.50;68.60
24144;DHT22;12307;50.828;6.080;2023-05-10T01:55:30;21.50;69.40
24144;DHT22;12307;50.828;6.080;2023-05-10T01:58:02;21.50;68.60
24144;DHT22;12307;50.828;6.080;2023-05-10T02:00:29;21.50;68.60
24144;DHT22;12307;50.828;6.080;2023-05-10T02:02:57;21.60;68.60
24144;DHT22;12307;50.828;6.080;2023-05-10T02:05:24;21.50;68.60
24144;DHT22;12307;50.828;6.080;2023-05-10T02:07:51;21.50;68.60
24144;DHT22;12307;50.828;6.080;2023-05-10T02:10:18;21.50;68.60
24144;DHT22;12307;50.828;6.080;2023-05-10T02:12:47;21.50;68.60
24144;DHT22;12307;50.828;6.080;2023-05-10T02:15:20;21.50;68.60
24144;DHT22;12307;50.828;6.080;2023-05-10T02:17:46;21.50;68.60
24144;DHT22;12307;50.828;6.080;2023-05-10T02:20:13;21.50;68.60
24144;DHT22;12307;50.828;6.080;2023-05-10T02:22:43;21.50;68.60
24144;DHT22;12307;50.828;6.080;2023-05-10T02:25:11;21.50;68.60
24144;DHT22;12307;50.828;6.080;2023-05-10T02:27:38;21.50;68.60
24144;DHT22;12307;50.828;6.080;2023-05-10T02:30:06;21.50;68.60
24144;DHT22;12307;50.828;6.080;2023-05-10T02:32:33;21.50;68.60
24144;DHT22;12307;50.828;6.080;2023-05-10T02:34:59;21.50;68.60
24144;DHT22;12307;50.828;6.080;2023-05-10T02:37:27;21.50;68.60
24144;DHT22;12307;50.828;6.080;2023-05-10T02:39:55;21.50;68.50
24144;DHT22;12307;50.828;6.080;2023-05-10T02:42:26;21.50;68.60
24144;DHT22;12307;50.828;6.080;2023-05-10T02:44:53;21.50;68.50
24144;DHT22;12307;50.828;6.080;2023-05-10T02:47:20;21.50;68.60
24144;DHT22;12307;50.828;6.080;2023-05-10T02:49:46;21.50;68.60
24144;DHT22;12307;50.828;6.080;2023-05-10T02:52:15;21.50;68.50
24144;DHT22;12307;50.828;6.080;2023-05-10T02:54:45;21.50;68.60
24144;DHT22;12307;50.828;6.080;2023-05-10T02:57:16;21.50;68.50
24144;DHT22;12307;50.828;6.080;2023-05-10T02:59:44;21.50;68.50
24144;DHT22;12307;50.828;6.080;2023-05-10T03:02:11;21.50;68.50
24144;DHT22;12307;50.828;6.080;2023-05-10T03:04:37;21.50;68.50
24144;DHT22;12307;50.828;6.080;2023-05-10T03:07:03;21.50;68.50
24144;DHT22;12307;50.828;6.080;2023-05-10T03:09:29;21.50;68.50
24144;DHT22;12307;50.828;6.080;2023-05-10T03:12:00;21.50;68.50
24144;DHT22;12307;50.828;6.080;2023-05-10T03:14:42;21.50;68.50
24144;DHT22;12307;50.828;6.080;2023-05-10T03:17:15;21.50;68.50
24144;DHT22;12307;50.828;6.080;2023-05-10T03:19:47;21.50;68.50
24144;DHT22;12307;50.828;6.080;2023-05-10T03:22:21;21.50;68.50
24144;DHT22;12307;50.828;6.080;2023-05-10T03:24:49;21.50;68.50
24144;DHT22;12307;50.828;6.080;2023-05-10T03:27:15;21.50;68.50
24144;DHT22;12307;50.828;6.080;2023-05-10T03:29:42;21.50;68.50
24144;DHT22;12307;50.828;6.080;2023-05-10T03:32:08;21.50;68.50
24144;DHT22;12307;50.828;6.080;2023-05-10T03:34:41;21.50;68.50
24144;DHT22;12307;50.828;6.080;2023-05-10T03:37:07;21.50;69.30
24144;DHT22;12307;50.828;6.080;2023-05-10T03:39:33;21.50;68.50
24144;DHT22;12307;50.828;6.080;2023-05-10T03:41:59;21.50;68.50
24144;DHT22;12307;50.828;6.080;2023-05-10T03:44:24;21.50;68.50
24144;DHT22;12307;50.828;6.080;2023-05-10T03:46:51;21.50;68.50
24144;DHT22;12307;50.828;6.080;2023-05-10T03:49:17;21.50;68.50
24144;DHT22;12307;50.828;6.080;2023-05-10T03:51:43;21.40;68.40
24144;DHT22;12307;50.828;6.080;2023-05-10T03:54:08;21.50;68.50
24144;DHT22;12307;50.828;6.080;2023-05-10T03:56:34;21.40;68.90
24144;DHT22;12307;50.828;6.080;2023-05-10T03:59:00;21.40;68.40
24144;DHT22;12307;50.828;6.080;2023-05-10T04:01:26;21.50;68.50
24144;DHT22;12307;50.828;6.080;2023-05-10T04:03:53;21.50;68.50
24144;DHT22;12307;50.828;6.080;2023-05-10T04:06:18;21.50;68.40
24144;DHT22;12307;50.828;6.080;2023-05-10T04:08:44;21.40;68.40
24144;DHT22;12307;50.828;6.080;2023-05-10T04:11:11;21.40;68.40
24144;DHT22;12307;50.828;6.080;2023-05-10T04:13:37;21.40;68.40
24144;DHT22;12307;50.828;6.080;2023-05-10T04:16:04;21.40;68.40
24144;DHT22;12307;50.828;6.080;2023-05-10T04:18:30;21.40;68.40
24144;DHT22;12307;50.828;6.080;2023-05-10T04:20:57;21.40;68.40
24144;DHT22;12307;50.828;6.080;2023-05-10T04:23:23;21.40;68.40
24144;DHT22;12307;50.828;6.080;2023-05-10T04:25:49;21.40;68.40
24144;DHT22;12307;50.828;6.080;2023-05-10T04:28:14;21.40;68.40
24144;DHT22;12307;50.828;6.080;2023-05-10T04:30:40;21.40;68.40
24144;DHT22;12307;50.828;6.080;2023-05-10T04:33:06;21.40;68.40
24144;DHT22;12307;50.828;6.080;2023-05-10T04:35:31;21.40;68.40
24144;DHT22;12307;50.828;6.080;2023-05-10T04:37:58;21.40;68.40
24144;DHT22;12307;50.828;6.080;2023-05-10T04:40:24;21.50;68.40
24144;DHT22;12307;50.828;6.080;2023-05-10T04:42:50;21.40;68.40
24144;DHT22;12307;50.828;6.080;2023-05-10T04:45:15;21.40;68.40
24144;DHT22;12307;50.828;6.080;2023-05-10T04:47:41;21.40;68.40
24144;DHT22;12307;50.828;6.080;2023-05-10T04:50:08;21.40;68.40
24144;DHT22;12307;50.828;6.080;2023-05-10T04:52:33;21.40;68.40
24144;DHT22;12307;50.828;6.080;2023-05-10T04:55:00;21.40;68.40
24144;DHT22;12307;50.828;6.080;2023-05-10T04:57:26;21.40;68.40
24144;DHT22;12307;50.828;6.080;2023-05-10T04:59:52;21.40;68.30
24144;DHT22;12307;50.828;6.080;2023-05-10T05:02:18;21.40;68.30
24144;DHT22;12307;50.828;6.080;2023-05-10T05:04:43;21.40;68.30
24144;DHT22;12307;50.828;6.080;2023-05-10T05:07:09;21.40;68.30
24144;DHT22;12307;50.828;6.080;2023-05-10T05:09:35;21.40;68.30
24144;DHT22;12307;50.828;6.080;2023-05-10T05:12:02;21.40;68.40
24144;DHT22;12307;50.828;6.080;2023-05-10T05:14:28;21.40;68.30
24144;DHT22;12307;50.828;6.080;2023-05-10T05:16:55;21.40;68.40
24144;DHT22;12307;50.828;6.080;2023-05-10T05:19:21;21.40;68.30
24144;DHT22;12307;50.828;6.080;2023-05-10T05:21:48;21.40;68.30
24144;DHT22;12307;50.828;6.080;2023-05-10T05:24:13;21.40;68.30
24144;DHT22;12307;50.828;6.080;2023-05-10T05:26:39;21.40;68.30
24144;DHT22;12307;50.828;6.080;2023-05-10T05:29:06;21.40;68.30
24144;DHT22;12307;50.828;6.080;2023-05-10T05:31:32;21.50;68.30
24144;DHT22;12307;50.828;6.080;2023-05-10T05:33:57;21.40;68.30
24144;DHT22;12307;50.828;6.080;2023-05-10T05:36:23;21.50;68.30
24144;DHT22;12307;50.828;6.080;2023-05-10T05:38:49;21.40;68.30
24144;DHT22;12307;50.828;6.080;2023-05-10T05:41:14;21.50;68.30
24144;DHT22;12307;50.828;6.080;2023-05-10T05:43:40;21.50;68.30
24144;DHT22;12307;50.828;6.080;2023-05-10T05:46:07;21.40;68.30
24144;DHT22;12307;50.828;6.080;2023-05-10T05:48:33;21.50;68.30
24144;DHT22;12307;50.828;6.080;2023-05-10T05:50:59;21.50;68.30
24144;DHT22;12307;50.828;6.080;2023-05-10T05:53:24;21.50;68.30
24144;DHT22;12307;50.828;6.080;2023-05-10T05:55:53;21.50;68.30
24144;DHT22;12307;50.828;6.080;2023-05-10T05:58:19;21.50;68.30
24144;DHT22;12307;50.828;6.080;2023-05-10T06:00:45;21.50;68.30
24144;DHT22;12307;50.828;6.080;2023-05-10T06:03:12;21.50;68.30
24144;DHT22;12307;50.828;6.080;2023-05-10T06:05:38;21.50;68.20
24144;DHT22;12307;50.828;6.080;2023-05-10T06:08:04;21.50;68.20
24144;DHT22;12307;50.828;6.080;2023-05-10T06:10:30;21.50;68.20
24144;DHT22;12307;50.828;6.080;2023-05-10T06:12:56;21.50;68.10
24144;DHT22;12307;50.828;6.080;2023-05-10T06:15:21;21.50;68.20
24144;DHT22;12307;50.828;6.080;2023-05-10T06:17:47;21.50;68.10
24144;DHT22;12307;50.828;6.080;2023-05-10T06:20:16;21.50;68.20
24144;DHT22;12307;50.828;6.080;2023-05-10T06:22:42;21.50;68.10
24144;DHT22;12307;50.828;6.080;2023-05-10T06:25:08;21.50;68.10
24144;DHT22;12307;50.828;6.080;2023-05-10T06:27:35;21.50;68.10
24144;DHT22;12307;50.828;6.080;2023-05-10T06:30:00;21.50;68.10
24144;DHT22;12307;50.828;6.080;2023-05-10T06:32:26;21.50;68.10
24144;DHT22;12307;50.828;6.080;2023-05-10T06:34:52;21.50;68.10
24144;DHT22;12307;50.828;6.080;2023-05-10T06:37:19;21.50;68.10
24144;DHT22;12307;50.828;6.080;2023-05-10T06:39:44;21.50;68.10
24144;DHT22;12307;50.828;6.080;2023-05-10T06:42:10;21.50;68.10
24144;DHT22;12307;50.828;6.080;2023-05-10T06:44:36;21.50;68.10
24144;DHT22;12307;50.828;6.080;2023-05-10T06:47:01;21.60;68.10
24144;DHT22;12307;50.828;6.080;2023-05-10T06:49:27;21.60;68.10
24144;DHT22;12307;50.828;6.080;2023-05-10T06:51:53;21.60;68.10
24144;DHT22;12307;50.828;6.080;2023-05-10T06:54:22;21.60;68.00
24144;DHT22;12307;50.828;6.080;2023-05-10T06:56:48;21.60;68.00
24144;DHT22;12307;50.828;6.080;2023-05-10T06:59:14;21.60;68.10
24144;DHT22;12307;50.828;6.080;2023-05-10T07:01:41;21.60;68.10
24144;DHT22;12307;50.828;6.080;2023-05-10T07:04:07;21.60;68.10
24144;DHT22;12307;50.828;6.080;2023-05-10T07:06:33;21.60;68.00
24144;DHT22;12307;50.828;6.080;2023-05-10T07:08:59;21.60;68.00
24144;DHT22;12307;50.828;6.080;2023-05-10T07:11:26;21.60;68.10
24144;DHT22;12307;50.828;6.080;2023-05-10T07:13:52;21.60;68.10
24144;DHT22;12307;50.828;6.080;2023-05-10T07:16:17;21.60;68.10
24144;DHT22;12307;50.828;6.080;2023-05-10T07:18:43;21.60;68.10
24144;DHT22;12307;50.828;6.080;2023-05-10T07:21:09;21.60;68.10
24144;DHT22;12307;50.828;6.080;2023-05-10T07:23:35;21.60;68.10
24144;DHT22;12307;50.828;6.080;2023-05-10T07:26:01;21.60;68.10
24144;DHT22;12307;50.828;6.080;2023-05-10T07:28:28;21.60;68.10
24144;DHT22;12307;50.828;6.080;2023-05-10T07:30:54;21.60;68.20
24144;DHT22;12307;50.828;6.080;2023-05-10T07:33:20;21.60;68.20
24144;DHT22;12307;50.828;6.080;2023-05-10T07:35:45;21.60;68.20
24144;DHT22;12307;50.828;6.080;2023-05-10T07:38:11;21.60;68.20
24144;DHT22;12307;50.828;6.080;2023-05-10T07:40:39;21.60;68.30
24144;DHT22;12307;50.828;6.080;2023-05-10T07:43:04;21.60;68.30
24144;DHT22;12307;50.828;6.080;2023-05-10T07:45:32;21.60;68.40
24144;DHT22;12307;50.828;6.080;2023-05-10T07:47:58;21.60;68.40
24144;DHT22;12307;50.828;6.080;2023-05-10T07:50:24;21.60;68.40
24144;DHT22;12307;50.828;6.080;2023-05-10T07:52:49;21.60;68.40
24144;DHT22;12307;50.828;6.080;2023-05-10T07:55:15;21.60;68.40
24144;DHT22;12307;50.828;6.080;2023-05-10T07:57:41;21.60;68.40
24144;DHT22;12307;50.828;6.080;2023-05-10T08:00:08;21.60;68.40
24144;DHT22;12307;50.828;6.080;2023-05-10T08:02:35;21.60;68.40
24144;DHT22;12307;50.828;6.080;2023-05-10T08:05:01;21.60;68.40
24144;DHT22;12307;50.828;6.080;2023-05-10T08:07:27;21.70;68.50
24144;DHT22;12307;50.828;6.080;2023-05-10T08:09:52;21.70;68.50
24144;DHT22;12307;50.828;6.080;2023-05-10T08:12:18;21.70;68.40
24144;DHT22;12307;50.828;6.080;2023-05-10T08:14:44;21.70;68.40
24144;DHT22;12307;50.828;6.080;2023-05-10T08:17:09;21.70;68.40
24144;DHT22;12307;50.828;6.080;2023-05-10T08:19:36;21.70;68.40
24144;DHT22;12307;50.828;6.080;2023-05-10T08:22:02;21.70;68.40
24144;DHT22;12307;50.828;6.080;2023-05-10T08:24:28;21.70;68.40
24144;DHT22;12307;50.828;6.080;2023-05-10T08:26:53;21.70;68.40
24144;DHT22;12307;50.828;6.080;2023-05-10T08:29:19;21.80;68.40
24144;DHT22;12307;50.828;6.080;2023-05-10T08:31:45;21.80;68.40
24144;DHT22;12307;50.828;6.080;2023-05-10T08:34:10;21.80;68.40
24144;DHT22;12307;50.828;6.080;2023-05-10T08:36:37;21.80;68.40
24144;DHT22;12307;50.828;6.080;2023-05-10T08:39:03;21.80;68.40
24144;DHT22;12307;50.828;6.080;2023-05-10T08:41:29;21.80;68.40
24144;DHT22;12307;50.828;6.080;2023-05-10T08:43:58;21.80;68.40
24144;DHT22;12307;50.828;6.080;2023-05-10T08:46:25;21.80;68.30
24144;DHT22;12307;50.828;6.080;2023-05-10T08:48:52;21.90;68.40
24144;DHT22;12307;50.828;6.080;2023-05-10T08:51:22;21.90;68.40
24144;DHT22;12307;50.828;6.080;2023-05-10T08:53:49;21.90;68.30
24144;DHT22;12307;50.828;6.080;2023-05-10T08:56:15;21.90;68.20
24144;DHT22;12307;50.828;6.080;2023-05-10T08:58:41;21.90;68.10
24144;DHT22;12307;50.828;6.080;2023-05-10T09:01:08;21.90;68.10
24144;DHT22;12307;50.828;6.080;2023-05-10T09:03:35;22.00;68.20
24144;DHT22;12307;50.828;6.080;2023-05-10T09:06:01;22.00;68.20
24144;DHT22;12307;50.828;6.080;2023-05-10T09:08:26;22.00;68.10
24144;DHT22;12307;50.828;6.080;2023-05-10T09:10:54;22.00;68.10
24144;DHT22;12307;50.828;6.080;2023-05-10T09:13:21;22.00;68.10
24144;DHT22;12307;50.828;6.080;2023-05-10T09:15:48;22.00;68.10
24144;DHT22;12307;50.828;6.080;2023-05-10T09:18:14;22.00;68.00
24144;DHT22;12307;50.828;6.080;2023-05-10T09:20:40;22.10;68.10
24144;DHT22;12307;50.828;6.080;2023-05-10T09:23:06;22.10;68.00
24144;DHT22;12307;50.828;6.080;2023-05-10T09:25:32;22.10;67.90
24144;DHT22;12307;50.828;6.080;2023-05-10T09:28:06;22.20;67.80
24144;DHT22;12307;50.828;6.080;2023-05-10T09:30:31;22.20;67.70
24144;DHT22;12307;50.828;6.080;2023-05-10T09:32:58;22.20;67.70
24144;DHT22;12307;50.828;6.080;2023-05-10T09:35:25;22.20;67.60
24144;DHT22;12307;50.828;6.080;2023-05-10T09:37:52;22.30;67.50
24144;DHT22;12307;50.828;6.080;2023-05-10T09:40:20;22.30;67.50
24144;DHT22;12307;50.828;6.080;2023-05-10T09:42:52;22.30;67.50
24144;DHT22;12307;50.828;6.080;2023-05-10T09:45:19;22.30;68.20
24144;DHT22;12307;50.828;6.080;2023-05-10T09:47:45;22.40;67.50
24144;DHT22;12307;50.828;6.080;2023-05-10T09:50:11;22.30;67.40
24144;DHT22;12307;50.828;6.080;2023-05-10T09:52:47;22.40;67.50
24144;DHT22;12307;50.828;6.080;2023-05-10T09:55:13;22.30;67.40
24144;DHT22;12307;50.828;6.080;2023-05-10T09:57:39;22.30;67.40
24144;DHT22;12307;50.828;6.080;2023-05-10T10:00:07;22.30;67.40
24144;DHT22;12307;50.828;6.080;2023-05-10T10:02:34;22.40;67.50
24144;DHT22;12307;50.828;6.080;2023-05-10T10:05:01;22.40;67.40
24144;DHT22;12307;50.828;6.080;2023-05-10T10:07:27;22.40;67.40
24144;DHT22;12307;50.828;6.080;2023-05-10T10:09:53;22.40;67.30
24144;DHT22;12307;50.828;6.080;2023-05-10T10:12:19;22.50;67.40
24144;DHT22;12307;50.828;6.080;2023-05-10T10:14:46;22.50;67.40
24144;DHT22;12307;50.828;6.080;2023-05-10T10:17:12;22.50;67.30
24144;DHT22;12307;50.828;6.080;2023-05-10T10:19:39;22.50;67.30
24144;DHT22;12307;50.828;6.080;2023-05-10T10:22:05;22.50;67.20
24144;DHT22;12307;50.828;6.080;2023-05-10T10:24:31;22.50;67.10
24144;DHT22;12307;50.828;6.080;2023-05-10T10:27:03;22.50;67.10
24144;DHT22;12307;50.828;6.080;2023-05-10T10:29:34;22.60;67.10
24144;DHT22;12307;50.828;6.080;2023-05-10T10:32:06;22.60;67.00
24144;DHT22;12307;50.828;6.080;2023-05-10T10:34:35;22.70;66.90
24144;DHT22;12307;50.828;6.080;2023-05-10T10:37:05;22.70;66.80
24144;DHT22;12307;50.828;6.080;2023-05-10T10:39:32;22.70;66.80
24144;DHT22;12307;50.828;6.080;2023-05-10T10:41:59;22.70;66.70
24144;DHT22;12307;50.828;6.080;2023-05-10T10:44:33;22.80;66.70
24144;DHT22;12307;50.828;6.080;2023-05-10T10:47:07;22.80;66.50
24144;DHT22;12307;50.828;6.080;2023-05-10T10:49:42;22.80;66.50
24144;DHT22;12307;50.828;6.080;2023-05-10T10:52:26;22.80;66.50
24144;DHT22;12307;50.828;6.080;2023-05-10T10:54:59;22.80;66.40
24144;DHT22;12307;50.828;6.080;2023-05-10T10:57:26;22.80;66.40
24144;DHT22;12307;50.828;6.080;2023-05-10T11:02:43;22.90;66.40
24144;DHT22;12307;50.828;6.080;2023-05-10T11:08:16;22.80;66.30
24144;DHT22;12307;50.828;6.080;2023-05-10T11:11:03;22.80;66.30
24144;DHT22;12307;50.828;6.080;2023-05-10T11:13:30;22.90;66.30
24144;DHT22;12307;50.828;6.080;2023-05-10T11:15:56;22.80;66.30
24144;DHT22;12307;50.828;6.080;2023-05-10T11:18:24;22.80;66.30
24144;DHT22;12307;50.828;6.080;2023-05-10T11:20:51;22.90;66.20
24144;DHT22;12307;50.828;6.080;2023-05-10T11:23:18;23.00;66.10
24144;DHT22;12307;50.828;6.080;2023-05-10T11:25:45;23.00;66.00
24144;DHT22;12307;50.828;6.080;2023-05-10T11:28:11;23.10;66.00
24144;DHT22;12307;50.828;6.080;2023-05-10T11:30:39;23.20;65.90
24144;DHT22;12307;50.828;6.080;2023-05-10T11:33:05;23.30;65.70
24144;DHT22;12307;50.828;6.080;2023-05-10T11:35:30;23.40;65.50
24144;DHT22;12307;50.828;6.080;2023-05-10T11:38:01;23.50;65.40
24144;DHT22;12307;50.828;6.080;2023-05-10T11:40:28;23.50;65.20
24144;DHT22;12307;50.828;6.080;2023-05-10T11:42:56;23.50;65.20
24144;DHT22;12307;50.828;6.080;2023-05-10T11:45:23;23.50;65.00
24144;DHT22;12307;50.828;6.080;2023-05-10T11:47:49;23.50;65.00
24144;DHT22;12307;50.828;6.080;2023-05-10T11:50:16;23.50;65.10
24144;DHT22;12307;50.828;6.080;2023-05-10T11:52:43;23.50;65.10
24144;DHT22;12307;50.828;6.080;2023-05-10T11:55:09;23.50;65.00
24144;DHT22;12307;50.828;6.080;2023-05-10T11:57:36;23.50;65.00
24144;DHT22;12307;50.828;6.080;2023-05-10T12:00:05;23.50;65.00
24144;DHT22;12307;50.828;6.080;2023-05-10T12:02:31;23.50;65.00
24144;DHT22;12307;50.828;6.080;2023-05-10T12:04:57;23.50;66.00
24144;DHT22;12307;50.828;6.080;2023-05-10T12:07:22;23.40;65.10
24144;DHT22;12307;50.828;6.080;2023-05-10T12:10:03;23.40;65.30
24144;DHT22;12307;50.828;6.080;2023-05-10T12:12:37;23.30;65.30
24144;DHT22;12307;50.828;6.080;2023-05-10T12:15:03;23.20;65.40
24144;DHT22;12307;50.828;6.080;2023-05-10T12:17:29;23.20;65.50
24144;DHT22;12307;50.828;6.080;2023-05-10T12:19:59;23.20;65.50
24144;DHT22;12307;50.828;6.080;2023-05-10T12:22:24;23.10;65.50
24144;DHT22;12307;50.828;6.080;2023-05-10T12:24:50;23.20;65.60
24144;DHT22;12307;50.828;6.080;2023-05-10T12:27:16;23.20;65.60
24144;DHT22;12307;50.828;6.080;2023-05-10T12:29:44;23.10;65.50
24144;DHT22;12307;50.828;6.080;2023-05-10T12:32:09;23.10;65.50
24144;DHT22;12307;50.828;6.080;2023-05-10T12:34:36;23.20;65.60
24144;DHT22;12307;50.828;6.080;2023-05-10T12:37:03;23.10;65.50
24144;DHT22;12307;50.828;6.080;2023-05-10T12:39:39;23.10;65.50
24144;DHT22;12307;50.828;6.080;2023-05-10T12:42:05;23.10;65.50
24144;DHT22;12307;50.828;6.080;2023-05-10T12:44:31;23.10;65.50
24144;DHT22;12307;50.828;6.080;2023-05-10T12:46:58;23.20;65.50
24144;DHT22;12307;50.828;6.080;2023-05-10T12:49:24;23.20;65.40
24144;DHT22;12307;50.828;6.080;2023-05-10T12:51:49;23.20;65.30
24144;DHT22;12307;50.828;6.080;2023-05-10T12:54:15;23.30;65.30
24144;DHT22;12307;50.828;6.080;2023-05-10T12:56:41;23.30;65.20
24144;DHT22;12307;50.828;6.080;2023-05-10T12:59:08;23.40;65.10
24144;DHT22;12307;50.828;6.080;2023-05-10T13:01:33;23.40;65.00
24144;DHT22;12307;50.828;6.080;2023-05-10T13:04:00;23.40;65.00
24144;DHT22;12307;50.828;6.080;2023-05-10T13:06:26;23.40;65.00
24144;DHT22;12307;50.828;6.080;2023-05-10T13:08:52;23.40;65.00
24144;DHT22;12307;50.828;6.080;2023-05-10T13:11:17;23.40;65.00
24144;DHT22;12307;50.828;6.080;2023-05-10T13:13:45;23.40;64.90
24144;DHT22;12307;50.828;6.080;2023-05-10T13:16:10;23.40;64.90
24144;DHT22;12307;50.828;6.080;2023-05-10T13:18:36;23.40;64.90
24144;DHT22;12307;50.828;6.080;2023-05-10T13:21:03;23.50;64.90
24144;DHT22;12307;50.828;6.080;2023-05-10T13:23:30;23.50;64.80
24144;DHT22;12307;50.828;6.080;2023-05-10T13:25:56;23.50;64.70
24144;DHT22;12307;50.828;6.080;2023-05-10T13:28:22;23.50;64.70
24144;DHT22;12307;50.828;6.080;2023-05-10T13:30:47;23.50;64.60
24144;DHT22;12307;50.828;6.080;2023-05-10T13:33:13;23.50;64.50
24144;DHT22;12307;50.828;6.080;2023-05-10T13:35:39;23.60;64.60
24144;DHT22;12307;50.828;6.080;2023-05-10T13:38:06;23.60;64.50
24144;DHT22;12307;50.828;6.080;2023-05-10T13:40:33;23.60;64.40
24144;DHT22;12307;50.828;6.080;2023-05-10T13:42:58;23.60;64.40
24144;DHT22;12307;50.828;6.080;2023-05-10T13:45:24;23.60;64.30
24144;DHT22;12307;50.828;6.080;2023-05-10T13:47:50;23.60;64.30
24144;DHT22;12307;50.828;6.080;2023-05-10T13:50:17;23.60;65.10
24144;DHT22;12307;50.828;6.080;2023-05-10T13:52:43;23.60;64.20
24144;DHT22;12307;50.828;6.080;2023-05-10T13:55:10;23.60;64.30
24144;DHT22;12307;50.828;6.080;2023-05-10T13:57:37;23.60;64.30
24144;DHT22;12307;50.828;6.080;2023-05-10T14:00:04;23.60;64.20
24144;DHT22;12307;50.828;6.080;2023-05-10T14:02:30;23.60;64.20
24144;DHT22;12307;50.828;6.080;2023-05-10T14:04:56;23.60;64.20
24144;DHT22;12307;50.828;6.080;2023-05-10T14:07:21;23.60;64.20
24144;DHT22;12307;50.828;6.080;2023-05-10T14:09:47;23.60;64.20
24144;DHT22;12307;50.828;6.080;2023-05-10T14:12:14;23.60;64.20
24144;DHT22;12307;50.828;6.080;2023-05-10T14:14:40;23.50;64.20
24144;DHT22;12307;50.828;6.080;2023-05-10T14:17:06;23.50;64.20
24144;DHT22;12307;50.828;6.080;2023-05-10T14:19:32;23.50;64.30
24144;DHT22;12307;50.828;6.080;2023-05-10T14:21:59;23.40;64.30
24144;DHT22;12307;50.828;6.080;2023-05-10T14:24:25;23.40;64.40
24144;DHT22;12307;50.828;6.080;2023-05-10T14:26:50;23.40;64.40
24144;DHT22;12307;50.828;6.080;2023-05-10T14:29:20;23.40;64.40
24144;DHT22;12307;50.828;6.080;2023-05-10T14:31:46;23.30;64.40
24144;DHT22;12307;50.828;6.080;2023-05-10T14:34:11;23.30;64.60
24144;DHT22;12307;50.828;6.080;2023-05-10T14:36:37;23.30;64.60
24144;DHT22;12307;50.828;6.080;2023-05-10T14:39:03;23.20;64.60
24144;DHT22;12307;50.828;6.080;2023-05-10T14:41:29;23.20;64.70
24144;DHT22;12307;50.828;6.080;2023-05-10T14:43:55;23.20;64.80
24144;DHT22;12307;50.828;6.080;2023-05-10T14:46:22;23.20;64.90
24144;DHT22;12307;50.828;6.080;2023-05-10T14:48:48;23.10;64.90
24144;DHT22;12307;50.828;6.080;2023-05-10T14:51:14;23.10;65.00
24144;DHT22;12307;50.828;6.080;2023-05-10T14:53:39;23.10;65.10
24144;DHT22;12307;50.828;6.080;2023-05-10T14:56:05;23.10;65.20
24144;DHT22;12307;50.828;6.080;2023-05-10T14:58:31;23.00;65.10
24144;DHT22;12307;50.828;6.080;2023-05-10T15:00:57;23.00;65.20
24144;DHT22;12307;50.828;6.080;2023-05-10T15:03:24;23.00;65.30
24144;DHT22;12307;50.828;6.080;2023-05-10T15:05:50;23.00;65.40
24144;DHT22;12307;50.828;6.080;2023-05-10T15:08:16;23.00;65.50
24144;DHT22;12307;50.828;6.080;2023-05-10T15:10:42;22.90;65.50
24144;DHT22;12307;50.828;6.080;2023-05-10T15:13:08;22.90;65.50
24144;DHT22;12307;50.828;6.080;2023-05-10T15:15:35;22.90;65.70
24144;DHT22;12307;50.828;6.080;2023-05-10T15:18:00;22.90;65.70
24144;DHT22;12307;50.828;6.080;2023-05-10T15:20:27;22.80;65.70
24144;DHT22;12307;50.828;6.080;2023-05-10T15:22:53;22.80;65.80
24144;DHT22;12307;50.828;6.080;2023-05-10T15:25:19;22.80;65.90
24144;DHT22;12307;50.828;6.080;2023-05-10T15:27:45;22.80;65.90
24144;DHT22;12307;50.828;6.080;2023-05-10T15:30:11;22.80;66.00
24144;DHT22;12307;50.828;6.080;2023-05-10T15:32:37;22.80;66.00
24144;DHT22;12307;50.828;6.080;2023-05-10T15:35:05;22.80;66.00